Time;durP1;ratioP1;P1;durP2;ratioP2;P2;SDS_P1;SDS_P2;PMS_P1;PMS_P2;Temp;Humidity;BMP_temperature;BMP_pressure;BME280_temperature;BME280_humidity;BME280_pressure;Samples;Min_cycle;Max_cycle;Signal;HPM_P1;HPM_P2
2021/03/10 00:01:22;;;;;;;;;;;9.70;46.10;;;;;;4951119;28;78389;-68
2021/03/10 00:03:48;;;;;;;;;;;9.70;46.10;;;;;;4952062;28;75104;-71
2021/03/10 00:06:13;;;;;;;;;;;9.60;46.20;;;;;;4950908;28;75698;-69
2021/03/10 00:08:39;;;;;;;;;;;9.60;46.20;;;;;;4952565;28;75104;-66
2021/03/10 00:11:05;;;;;;;;;;;9.60;46.30;;;;;;4950530;28;77160;-68
2021/03/10 00:13:30;;;;;;;;;;;9.40;46.40;;;;;;4950824;28;74628;-70
2021/03/10 00:15:56;;;;;;;;;;;9.40;46.50;;;;;;4951036;28;75421;-70
2021/03/10 00:18:21;;;;;;;;;;;9.40;46.50;;;;;;4952433;28;74964;-71
2021/03/10 00:20:47;;;;;;;;;;;9.40;46.40;;;;;;4952473;28;75226;-70
2021/03/10 00:23:12;;;;;;;;;;;9.30;47.00;;;;;;4951785;28;75369;-70
2021/03/10 00:25:38;;;;;;;;;;;9.20;47.90;;;;;;4951624;28;77372;-69
2021/03/10 00:28:04;;;;;;;;;;;9.10;48.10;;;;;;4953883;28;75634;-70
2021/03/10 00:30:29;;;;;;;;;;;9.00;48.30;;;;;;4954404;28;75222;-75
2021/03/10 00:32:55;;;;;;;;;;;9.00;47.80;;;;;;4954557;28;74630;-70
2021/03/10 00:35:20;;;;;;;;;;;8.90;48.00;;;;;;4954117;28;75446;-75
2021/03/10 00:37:46;;;;;;;;;;;8.90;48.30;;;;;;4953168;28;75805;-72
2021/03/10 00:40:12;;;;;;;;;;;8.90;48.10;;;;;;4952545;28;74625;-75
2021/03/10 00:42:37;;;;;;;;;;;8.90;48.20;;;;;;4951316;28;76467;-74
2021/03/10 00:45:03;;;;;;;;;;;8.90;48.30;;;;;;4952466;28;75089;-70
2021/03/10 00:47:29;;;;;;;;;;;8.90;48.50;;;;;;4952812;28;74410;-76
2021/03/10 00:49:55;;;;;;;;;;;8.80;48.20;;;;;;4951571;28;74601;-74
2021/03/10 00:52:20;;;;;;;;;;;8.80;48.40;;;;;;4949881;28;77100;-74
2021/03/10 00:54:46;;;;;;;;;;;8.80;48.40;;;;;;4952794;28;76171;-71
2021/03/10 00:57:12;;;;;;;;;;;8.80;48.50;;;;;;4954691;28;75171;-72
2021/03/10 00:59:37;;;;;;;;;;;8.80;48.80;;;;;;4950572;28;75684;-76
2021/03/10 01:02:03;;;;;;;;;;;8.70;49.10;;;;;;4950260;28;77281;-71
2021/03/10 01:04:28;;;;;;;;;;;8.70;49.30;;;;;;4950864;28;76187;-71
2021/03/10 01:06:54;;;;;;;;;;;8.70;49.50;;;;;;4953305;28;75154;-71
2021/03/10 01:09:20;;;;;;;;;;;8.60;49.80;;;;;;4951840;28;76301;-79
2021/03/10 01:11:45;;;;;;;;;;;8.60;51.50;;;;;;4949950;28;76065;-72
2021/03/10 01:14:11;;;;;;;;;;;8.50;51.60;;;;;;4951284;28;74499;-74
2021/03/10 01:16:37;;;;;;;;;;;8.40;51.30;;;;;;4951457;28;75698;-69
2021/03/10 01:19:03;;;;;;;;;;;8.20;51.30;;;;;;4949678;28;77265;-70
2021/03/10 01:21:29;;;;;;;;;;;8.20;52.20;;;;;;4949684;28;77739;-71
2021/03/10 01:23:55;;;;;;;;;;;8.10;51.80;;;;;;4951549;28;75136;-73
2021/03/10 01:26:20;;;;;;;;;;;8.10;51.70;;;;;;4951066;28;75539;-68
2021/03/10 01:28:46;;;;;;;;;;;8.10;52.60;;;;;;4949640;28;77169;-67
2021/03/10 01:31:12;;;;;;;;;;;8.00;53.30;;;;;;4949580;28;75362;-69
2021/03/10 01:33:37;;;;;;;;;;;8.00;53.60;;;;;;4949440;28;74770;-68
2021/03/10 01:36:03;;;;;;;;;;;7.90;53.10;;;;;;4951096;28;74518;-68
2021/03/10 01:38:29;;;;;;;;;;;7.80;53.50;;;;;;4951064;28;74376;-72
2021/03/10 01:40:54;;;;;;;;;;;7.80;53.20;;;;;;4951094;28;75070;-68
2021/03/10 01:43:20;;;;;;;;;;;7.80;53.10;;;;;;4952178;28;75076;-69
2021/03/10 01:45:46;;;;;;;;;;;7.70;53.80;;;;;;4951370;28;75190;-69
2021/03/10 01:48:11;;;;;;;;;;;7.60;53.40;;;;;;4949534;28;77361;-73
2021/03/10 01:50:37;;;;;;;;;;;7.50;53.30;;;;;;4949694;28;74731;-72
2021/03/10 01:53:03;;;;;;;;;;;7.40;53.90;;;;;;4951029;28;74657;-73
2021/03/10 01:55:29;;;;;;;;;;;7.20;55.50;;;;;;4949250;28;76981;-67
2021/03/10 01:57:55;;;;;;;;;;;7.00;56.60;;;;;;4948605;28;75410;-68
2021/03/10 02:00:23;;;;;;;;;;;6.90;57.40;;;;;;4949337;28;74721;-67
2021/03/10 02:02:49;;;;;;;;;;;6.80;56.60;;;;;;4950778;28;75278;-67
2021/03/10 02:05:16;;;;;;;;;;;6.80;56.90;;;;;;4950514;28;75033;-68
2021/03/10 02:07:42;;;;;;;;;;;6.70;56.50;;;;;;4950676;28;74917;-68
2021/03/10 02:10:30;;;;;;;;;;;6.70;56.70;;;;;;4950616;28;75434;-69
2021/03/10 02:12:58;;;;;;;;;;;6.70;57.50;;;;;;4950685;28;75250;-68
2021/03/10 02:15:33;;;;;;;;;;;6.60;58.10;;;;;;4948920;28;76318;-67
2021/03/10 02:18:03;;;;;;;;;;;6.40;58.00;;;;;;4950499;28;74380;-73
2021/03/10 02:20:36;;;;;;;;;;;6.40;58.00;;;;;;4950714;28;75206;-67
2021/03/10 02:23:10;;;;;;;;;;;6.40;57.50;;;;;;4949823;28;74380;-73
2021/03/10 02:25:54;;;;;;;;;;;6.40;58.30;;;;;;4949087;28;75381;-66
2021/03/10 02:28:20;;;;;;;;;;;6.30;59.80;;;;;;4950868;28;74495;-70
2021/03/10 02:30:48;;;;;;;;;;;6.20;59.50;;;;;;4950608;28;75509;-66
2021/03/10 02:33:19;;;;;;;;;;;6.10;60.10;;;;;;4948871;28;75247;-66
2021/03/10 02:35:46;;;;;;;;;;;6.00;59.30;;;;;;4950561;28;75038;-72
2021/03/10 02:38:17;;;;;;;;;;;6.00;59.50;;;;;;4949173;28;74642;-70
2021/03/10 02:40:43;;;;;;;;;;;6.00;59.00;;;;;;4950316;28;75707;-74
2021/03/10 02:43:09;;;;;;;;;;;6.00;58.70;;;;;;4948976;28;75269;-81
2021/03/10 02:45:35;;;;;;;;;;;6.00;58.70;;;;;;4948655;28;75366;-76
2021/03/10 02:48:02;;;;;;;;;;;6.00;58.50;;;;;;4948732;28;75595;-79
2021/03/10 02:50:29;;;;;;;;;;;6.10;58.20;;;;;;4950070;28;75389;-76
2021/03/10 02:52:56;;;;;;;;;;;6.10;58.10;;;;;;4948300;28;76475;-69
2021/03/10 02:55:22;;;;;;;;;;;6.20;58.60;;;;;;4950717;28;74899;-67
2021/03/10 02:57:48;;;;;;;;;;;6.10;58.00;;;;;;4949812;28;75242;-71
2021/03/10 03:00:16;;;;;;;;;;;6.10;58.40;;;;;;4950263;28;74421;-71
2021/03/10 03:02:42;;;;;;;;;;;6.00;59.40;;;;;;4949548;28;77079;-73
2021/03/10 03:05:08;;;;;;;;;;;5.90;59.50;;;;;;4950072;28;75778;-71
2021/03/10 03:07:36;;;;;;;;;;;5.80;60.00;;;;;;4948846;28;75411;-71
2021/03/10 03:10:04;;;;;;;;;;;5.80;59.60;;;;;;4953013;28;75302;-70
2021/03/10 03:12:31;;;;;;;;;;;5.80;59.40;;;;;;4952825;28;76409;-69
2021/03/10 03:14:57;;;;;;;;;;;5.80;59.10;;;;;;4952237;28;75622;-74
2021/03/10 03:17:23;;;;;;;;;;;5.80;59.70;;;;;;4953093;28;74400;-71
2021/03/10 03:19:49;;;;;;;;;;;5.70;60.10;;;;;;4952856;28;75165;-72
2021/03/10 03:22:16;;;;;;;;;;;5.70;59.90;;;;;;4952903;28;75627;-71
2021/03/10 03:24:42;;;;;;;;;;;5.70;59.50;;;;;;4953001;28;75206;-70
2021/03/10 03:27:08;;;;;;;;;;;5.70;60.60;;;;;;4952406;28;74454;-68
2021/03/10 03:29:33;;;;;;;;;;;5.70;60.00;;;;;;4952858;28;75217;-68
2021/03/10 03:31:59;;;;;;;;;;;5.70;59.90;;;;;;4952792;28;74517;-67
2021/03/10 03:34:25;;;;;;;;;;;5.60;60.10;;;;;;4950703;28;76937;-71
2021/03/10 03:36:51;;;;;;;;;;;5.60;60.10;;;;;;4952438;28;75479;-70
2021/03/10 03:39:17;;;;;;;;;;;5.60;59.90;;;;;;4953201;28;75323;-68
2021/03/10 03:41:44;;;;;;;;;;;5.50;59.80;;;;;;4955673;28;75382;-68
2021/03/10 03:44:09;;;;;;;;;;;5.60;59.90;;;;;;4952330;28;74972;-72
2021/03/10 03:46:35;;;;;;;;;;;5.60;59.70;;;;;;4953006;28;75535;-73
2021/03/10 03:49:01;;;;;;;;;;;5.60;59.80;;;;;;4952408;28;75046;-71
2021/03/10 03:51:28;;;;;;;;;;;5.60;59.70;;;;;;4953148;28;74648;-83
2021/03/10 03:54:01;;;;;;;;;;;5.70;59.70;;;;;;4950612;28;76184;-78
2021/03/10 03:56:27;;;;;;;;;;;5.70;59.80;;;;;;4951626;28;78090;-81
2021/03/10 03:58:53;;;;;;;;;;;5.70;59.70;;;;;;4952661;28;75732;-80
2021/03/10 04:01:19;;;;;;;;;;;5.60;59.40;;;;;;4953100;28;75583;-83
2021/03/10 04:03:45;;;;;;;;;;;5.60;59.60;;;;;;4951939;28;77145;-66
2021/03/10 04:06:11;;;;;;;;;;;5.60;60.20;;;;;;4953206;28;75579;-75
2021/03/10 04:08:37;;;;;;;;;;;5.50;60.70;;;;;;4950890;28;77977;-70
2021/03/10 04:11:02;;;;;;;;;;;5.50;61.60;;;;;;4952158;28;75537;-75
2021/03/10 04:13:28;;;;;;;;;;;5.40;62.40;;;;;;4950700;28;76887;-67
2021/03/10 04:15:54;;;;;;;;;;;5.30;61.70;;;;;;4952250;28;75131;-68
2021/03/10 04:18:19;;;;;;;;;;;5.30;61.30;;;;;;4950563;28;76973;-67
2021/03/10 04:20:45;;;;;;;;;;;5.30;61.10;;;;;;4950175;28;76349;-67
2021/03/10 04:23:10;;;;;;;;;;;5.30;61.00;;;;;;4952162;28;74588;-67
2021/03/10 04:25:36;;;;;;;;;;;5.40;61.00;;;;;;4952057;28;75213;-70
2021/03/10 04:28:02;;;;;;;;;;;5.40;61.20;;;;;;4951048;28;75331;-67
2021/03/10 04:30:27;;;;;;;;;;;5.40;61.00;;;;;;4950872;28;77107;-65
2021/03/10 04:32:54;;;;;;;;;;;5.40;61.40;;;;;;4952361;28;74376;-64
2021/03/10 04:35:21;;;;;;;;;;;5.40;61.10;;;;;;4951558;28;75392;-66
2021/03/10 04:37:47;;;;;;;;;;;5.40;61.00;;;;;;4950754;28;77023;-70
2021/03/10 04:40:14;;;;;;;;;;;5.40;61.00;;;;;;4950511;28;78085;-68
2021/03/10 04:42:40;;;;;;;;;;;5.40;60.70;;;;;;4952182;28;75110;-70
2021/03/10 04:45:07;;;;;;;;;;;5.40;60.80;;;;;;4952157;28;75144;-69
2021/03/10 04:47:33;;;;;;;;;;;5.40;60.70;;;;;;4951704;28;75226;-76
2021/03/10 04:49:59;;;;;;;;;;;5.40;60.70;;;;;;4951893;28;74488;-70
2021/03/10 04:52:24;;;;;;;;;;;5.30;60.70;;;;;;4951375;28;74658;-67
2021/03/10 04:54:50;;;;;;;;;;;5.30;61.00;;;;;;4950222;28;77717;-65
2021/03/10 04:57:15;;;;;;;;;;;5.20;61.00;;;;;;4951979;28;75131;-65
2021/03/10 04:59:41;;;;;;;;;;;5.30;61.00;;;;;;4951925;28;74989;-66
2021/03/10 05:02:07;;;;;;;;;;;5.20;60.90;;;;;;4951818;28;75188;-68
2021/03/10 05:04:32;;;;;;;;;;;5.20;61.70;;;;;;4951510;28;75561;-66
2021/03/10 05:06:58;;;;;;;;;;;5.10;61.60;;;;;;4951970;28;75164;-67
2021/03/10 05:09:23;;;;;;;;;;;5.00;61.90;;;;;;4951406;28;75195;-66
2021/03/10 05:11:49;;;;;;;;;;;4.90;61.80;;;;;;4951962;28;74449;-67
2021/03/10 05:14:14;;;;;;;;;;;5.00;61.70;;;;;;4949596;28;77603;-68
2021/03/10 05:16:40;;;;;;;;;;;5.00;61.70;;;;;;4951679;28;75250;-66
2021/03/10 05:19:06;;;;;;;;;;;5.00;61.90;;;;;;4933630;28;77343;-67
2021/03/10 05:21:31;;;;;;;;;;;4.90;62.40;;;;;;4951526;28;74888;-72
2021/03/10 05:23:57;;;;;;;;;;;4.80;63.00;;;;;;4951398;28;75042;-68
2021/03/10 05:26:22;;;;;;;;;;;4.80;63.00;;;;;;4951561;28;75156;-69
2021/03/10 05:28:48;;;;;;;;;;;4.80;62.80;;;;;;4951897;28;75367;-70
2021/03/10 05:31:15;;;;;;;;;;;4.80;62.60;;;;;;4948650;28;77764;-67
2021/03/10 05:33:41;;;;;;;;;;;4.70;63.20;;;;;;4951511;28;74426;-69
2021/03/10 05:36:06;;;;;;;;;;;4.70;62.80;;;;;;4950166;28;77015;-73
2021/03/10 05:38:32;;;;;;;;;;;4.70;62.70;;;;;;4952422;28;75307;-67
2021/03/10 05:40:58;;;;;;;;;;;4.70;62.60;;;;;;4957516;28;75300;-67
2021/03/10 05:43:24;;;;;;;;;;;4.70;62.60;;;;;;4954076;28;75580;-67
2021/03/10 05:45:50;;;;;;;;;;;4.70;62.40;;;;;;4951662;28;75082;-68
2021/03/10 05:48:15;;;;;;;;;;;4.70;62.60;;;;;;4950094;28;77539;-68
2021/03/10 05:50:41;;;;;;;;;;;4.70;62.50;;;;;;4950506;28;78457;-78
2021/03/10 05:53:11;;;;;;;;;;;4.70;62.50;;;;;;4951295;28;75711;-77
2021/03/10 05:55:38;;;;;;;;;;;4.70;62.50;;;;;;4951245;28;75448;-72
2021/03/10 05:58:08;;;;;;;;;;;4.80;62.30;;;;;;4951567;28;75258;-78
2021/03/10 06:00:33;;;;;;;;;;;4.80;62.30;;;;;;4951530;28;75677;-78
2021/03/10 06:02:59;;;;;;;;;;;4.80;62.40;;;;;;4951298;28;74942;-73
2021/03/10 06:05:25;;;;;;;;;;;4.80;62.40;;;;;;4949827;28;78032;-74
2021/03/10 06:08:00;;;;;;;;;;;4.60;63.40;;;;;;4949251;28;76315;-66
2021/03/10 06:10:39;;;;;;;;;;;4.50;63.20;;;;;;4951030;28;75122;-67
2021/03/10 06:13:05;;;;;;;;;;;4.50;64.10;;;;;;4948990;28;75453;-69
2021/03/10 06:15:40;;;;;;;;;;;4.40;64.30;;;;;;4950745;28;75474;-70
2021/03/10 06:18:06;;;;;;;;;;;4.30;65.10;;;;;;4950882;28;74478;-67
2021/03/10 06:20:32;;;;;;;;;;;4.20;65.50;;;;;;4950987;28;75138;-72
2021/03/10 06:22:58;;;;;;;;;;;4.20;65.70;;;;;;4950633;28;74411;-66
2021/03/10 06:25:25;;;;;;;;;;;4.10;65.20;;;;;;4949486;28;74662;-73
2021/03/10 06:27:51;;;;;;;;;;;4.10;65.40;;;;;;4951110;28;75607;-66
2021/03/10 06:30:18;;;;;;;;;;;4.10;64.90;;;;;;4949823;28;76185;-67
2021/03/10 06:32:44;;;;;;;;;;;4.10;65.20;;;;;;4933423;28;77750;-66
2021/03/10 06:35:11;;;;;;;;;;;4.10;64.80;;;;;;4932218;28;75906;-68
2021/03/10 06:37:36;;;;;;;;;;;4.10;64.60;;;;;;4926297;28;76097;-68
2021/03/10 06:40:09;;;;;;;;;;;4.20;64.40;;;;;;4932898;28;75788;-69
2021/03/10 06:42:34;;;;;;;;;;;4.20;64.30;;;;;;4927311;28;76852;-71
2021/03/10 06:45:00;;;;;;;;;;;4.30;64.50;;;;;;4929427;28;77291;-68
2021/03/10 06:47:34;;;;;;;;;;;4.30;64.70;;;;;;4926092;28;76497;-69
2021/03/10 06:49:59;;;;;;;;;;;4.30;65.40;;;;;;4932149;28;75654;-68
2021/03/10 06:52:25;;;;;;;;;;;4.30;64.90;;;;;;4925787;28;76299;-73
2021/03/10 06:54:55;;;;;;;;;;;4.30;64.60;;;;;;4929114;28;75281;-69
2021/03/10 06:57:21;;;;;;;;;;;4.40;64.60;;;;;;4934013;28;75806;-68
2021/03/10 06:59:46;;;;;;;;;;;4.40;64.90;;;;;;4927654;28;75964;-67
2021/03/10 07:02:19;;;;;;;;;;;4.50;64.90;;;;;;4927200;28;77336;-68
2021/03/10 07:04:46;;;;;;;;;;;4.50;64.70;;;;;;4930545;28;75875;-67
2021/03/10 07:07:14;;;;;;;;;;;4.50;65.10;;;;;;4929934;28;77286;-69
2021/03/10 07:09:40;;;;;;;;;;;4.50;64.20;;;;;;4927773;28;75827;-69
2021/03/10 07:12:07;;;;;;;;;;;4.60;64.40;;;;;;4927975;28;75605;-75
2021/03/10 07:14:33;;;;;;;;;;;4.50;64.40;;;;;;4926838;28;76522;-61
2021/03/10 07:16:59;;;;;;;;;;;4.50;64.30;;;;;;4924778;28;77058;-62
2021/03/10 07:19:25;;;;;;;;;;;4.50;64.20;;;;;;4933168;28;76203;-63
2021/03/10 07:21:58;;;;;;;;;;;4.40;64.20;;;;;;4927896;28;75677;-63
2021/03/10 07:24:30;;;;;;;;;;;4.40;64.10;;;;;;4930159;28;76109;-69
2021/03/10 07:26:56;;;;;;;;;;;4.40;64.10;;;;;;4927878;28;75760;-65
2021/03/10 07:29:22;;;;;;;;;;;4.40;64.00;;;;;;4925800;28;76661;-65
2021/03/10 07:31:57;;;;;;;;;;;4.50;63.70;;;;;;4931958;28;75604;-67
2021/03/10 07:34:26;;;;;;;;;;;4.50;63.50;;;;;;4921012;28;77087;-67
2021/03/10 07:36:52;;;;;;;;;;;4.60;63.70;;;;;;4925154;28;79675;-67
2021/03/10 07:39:29;;;;;;;;;;;4.60;63.50;;;;;;4933452;28;76160;-65
2021/03/10 07:42:06;;;;;;;;;;;4.60;63.30;;;;;;4930432;28;76763;-65
2021/03/10 07:44:32;;;;;;;;;;;4.70;63.10;;;;;;4933039;28;76999;-64
2021/03/10 07:47:06;;;;;;;;;;;4.80;62.80;;;;;;4927643;28;76550;-66
2021/03/10 07:49:32;;;;;;;;;;;4.90;62.70;;;;;;4928480;28;75715;-66
2021/03/10 07:52:11;;;;;;;;;;;5.00;62.90;;;;;;4925278;28;76918;-66
2021/03/10 07:54:38;;;;;;;;;;;5.10;62.70;;;;;;4928060;28;75630;-68
2021/03/10 07:57:14;;;;;;;;;;;5.20;62.00;;;;;;4910541;28;76472;-67
2021/03/10 07:59:51;;;;;;;;;;;5.40;61.60;;;;;;4921027;28;75281;-67
2021/03/10 08:02:16;;;;;;;;;;;5.40;61.30;;;;;;4926299;28;75705;-68
2021/03/10 08:04:51;;;;;;;;;;;5.60;61.00;;;;;;4926778;28;76117;-67
2021/03/10 08:07:20;;;;;;;;;;;5.70;60.60;;;;;;4926503;28;76840;-68
2021/03/10 08:09:48;;;;;;;;;;;5.80;60.20;;;;;;4925467;28;77698;-66
2021/03/10 08:12:14;;;;;;;;;;;5.80;60.00;;;;;;4929478;28;78074;-69
2021/03/10 08:14:41;;;;;;;;;;;5.90;60.10;;;;;;4927101;28;76298;-69
2021/03/10 08:17:07;;;;;;;;;;;5.90;60.00;;;;;;4929356;28;76109;-67
2021/03/10 08:19:33;;;;;;;;;;;5.90;59.90;;;;;;4928687;28;75368;-70
2021/03/10 08:21:59;;;;;;;;;;;6.00;59.90;;;;;;4928209;28;76382;-69
2021/03/10 08:24:25;;;;;;;;;;;6.20;59.70;;;;;;4921335;28;76373;-69
2021/03/10 08:26:52;;;;;;;;;;;6.30;59.50;;;;;;4926166;28;78084;-70
2021/03/10 08:29:18;;;;;;;;;;;6.40;59.20;;;;;;4932021;28;75987;-68
2021/03/10 08:31:49;;;;;;;;;;;6.60;59.00;;;;;;4930409;28;75720;-67
2021/03/10 08:34:15;;;;;;;;;;;6.70;58.70;;;;;;4925035;28;79031;-69
2021/03/10 08:36:41;;;;;;;;;;;6.70;58.20;;;;;;4933273;28;76434;-67
2021/03/10 08:39:11;;;;;;;;;;;6.90;58.00;;;;;;4920585;28;76059;-67
2021/03/10 08:41:44;;;;;;;;;;;6.90;58.00;;;;;;4930647;28;77150;-67
2021/03/10 08:44:10;;;;;;;;;;;7.10;58.10;;;;;;4933887;28;76192;-67
2021/03/10 08:46:40;;;;;;;;;;;7.40;57.50;;;;;;4921497;28;76437;-66
2021/03/10 08:49:16;;;;;;;;;;;7.50;56.80;;;;;;4931705;28;75626;-66
2021/03/10 08:51:41;;;;;;;;;;;7.60;56.20;;;;;;4927416;28;77307;-65
2021/03/10 08:54:07;;;;;;;;;;;7.70;56.40;;;;;;4921751;28;76941;-68
2021/03/10 08:56:33;;;;;;;;;;;7.90;55.90;;;;;;4930520;28;76334;-69
2021/03/10 08:58:58;;;;;;;;;;;8.00;54.90;;;;;;4936546;28;75738;-66
2021/03/10 09:01:24;;;;;;;;;;;8.10;54.40;;;;;;4921574;28;77999;-67
2021/03/10 09:03:49;;;;;;;;;;;8.40;54.10;;;;;;4932362;28;75691;-67
2021/03/10 09:06:15;;;;;;;;;;;8.40;53.60;;;;;;4932345;28;75098;-68
2021/03/10 09:08:41;;;;;;;;;;;8.60;53.30;;;;;;4919521;28;76076;-68
2021/03/10 09:11:07;;;;;;;;;;;8.70;53.10;;;;;;4921853;28;75949;-67
2021/03/10 09:13:34;;;;;;;;;;;8.90;53.10;;;;;;4922342;28;96130;-68
2021/03/10 09:16:09;;;;;;;;;;;9.00;52.50;;;;;;4936943;28;75961;-66
2021/03/10 09:18:35;;;;;;;;;;;9.10;52.10;;;;;;4923000;28;79574;-68
2021/03/10 09:21:02;;;;;;;;;;;9.30;51.30;;;;;;4918500;28;75780;-68
2021/03/10 09:23:27;;;;;;;;;;;9.40;51.60;;;;;;4919675;28;76222;-66
2021/03/10 09:25:56;;;;;;;;;;;9.50;51.30;;;;;;4916949;28;76605;-68
2021/03/10 09:28:22;;;;;;;;;;;9.70;50.60;;;;;;4923384;28;75176;-67
2021/03/10 09:30:48;;;;;;;;;;;9.80;49.90;;;;;;4925260;28;77991;-67
2021/03/10 09:33:21;;;;;;;;;;;10.00;49.90;;;;;;4930320;28;76358;-67
2021/03/10 09:36:05;;;;;;;;;;;10.20;49.50;;;;;;4924018;28;78287;-68
2021/03/10 09:38:31;;;;;;;;;;;10.30;49.50;;;;;;4917379;28;76265;-69
2021/03/10 09:40:58;;;;;;;;;;;10.60;49.20;;;;;;4933165;28;75735;-67
2021/03/10 09:43:25;;;;;;;;;;;10.80;49.00;;;;;;4920866;28;75713;-67
2021/03/10 09:45:55;;;;;;;;;;;11.10;48.20;;;;;;4925401;28;76171;-66
2021/03/10 09:48:33;;;;;;;;;;;11.30;46.90;;;;;;4926063;28;77751;-68
2021/03/10 09:51:08;;;;;;;;;;;11.60;47.00;;;;;;4929892;28;76100;-68
2021/03/10 09:53:37;;;;;;;;;;;11.80;45.80;;;;;;4933954;28;76067;-68
2021/03/10 09:56:03;;;;;;;;;;;12.10;45.90;;;;;;4919670;28;75857;-69
2021/03/10 09:58:29;;;;;;;;;;;12.40;44.30;;;;;;4922732;28;75275;-68
2021/03/10 10:00:59;;;;;;;;;;;12.50;41.10;;;;;;4924833;28;78666;-68
2021/03/10 10:03:25;;;;;;;;;;;12.60;43.40;;;;;;4916698;28;77301;-69
2021/03/10 10:05:51;;;;;;;;;;;12.90;42.20;;;;;;4931107;28;76726;-68
2021/03/10 10:08:16;;;;;;;;;;;13.20;41.80;;;;;;4924148;28;76598;-69
2021/03/10 10:10:42;;;;;;;;;;;13.40;41.30;;;;;;4916940;28;76254;-68
2021/03/10 10:13:08;;;;;;;;;;;13.70;40.80;;;;;;4922786;28;76375;-68
2021/03/10 10:15:33;;;;;;;;;;;13.90;38.90;;;;;;4935291;28;76354;-67
2021/03/10 10:18:03;;;;;;;;;;;13.90;40.00;;;;;;4934090;28;76700;-67
2021/03/10 10:20:33;;;;;;;;;;;14.20;39.20;;;;;;4936325;28;75944;-68
2021/03/10 10:22:59;;;;;;;;;;;14.40;39.80;;;;;;4925791;28;77451;-68
2021/03/10 10:25:25;;;;;;;;;;;14.70;39.50;;;;;;4916951;28;76210;-68
2021/03/10 10:27:51;;;;;;;;;;;15.00;38.90;;;;;;4927896;28;77298;-70
2021/03/10 10:30:18;;;;;;;;;;;15.20;38.60;;;;;;4927791;28;75821;-68
2021/03/10 10:32:44;;;;;;;;;;;15.50;36.00;;;;;;4934227;28;76649;-69
2021/03/10 10:35:11;;;;;;;;;;;15.60;37.20;;;;;;4918740;28;76454;-69
2021/03/10 10:37:37;;;;;;;;;;;15.90;34.10;;;;;;4931652;28;76053;-68
2021/03/10 10:40:23;;;;;;;;;;;15.60;33.70;;;;;;4929303;28;76186;-71
2021/03/10 10:42:49;;;;;;;;;;;15.60;36.20;;;;;;4920892;28;75764;-69
2021/03/10 10:45:18;;;;;;;;;;;16.10;35.90;;;;;;4935030;28;76517;-67
2021/03/10 10:47:44;;;;;;;;;;;16.60;33.60;;;;;;4925552;28;76314;-71
2021/03/10 10:50:10;;;;;;;;;;;17.00;34.70;;;;;;4933860;28;77170;-68
2021/03/10 10:52:36;;;;;;;;;;;17.40;32.40;;;;;;4916238;28;76300;-69
2021/03/10 10:55:05;;;;;;;;;;;17.80;33.30;;;;;;4917949;28;75189;-69
2021/03/10 10:57:31;;;;;;;;;;;18.30;32.60;;;;;;4916523;28;76307;-71
2021/03/10 10:59:56;;;;;;;;;;;18.90;32.00;;;;;;4916811;28;75413;-68
2021/03/10 11:02:22;;;;;;;;;;;19.50;31.40;;;;;;4928795;28;77474;-69
2021/03/10 11:04:48;;;;;;;;;;;20.20;30.30;;;;;;4931862;28;76314;-70
2021/03/10 11:07:13;;;;;;;;;;;20.70;28.40;;;;;;4935528;28;77290;-70
2021/03/10 11:09:42;;;;;;;;;;;21.00;29.60;;;;;;4931591;28;77993;-68
2021/03/10 11:12:09;;;;;;;;;;;21.60;28.80;;;;;;4922040;28;76592;-68
2021/03/10 11:14:38;;;;;;;;;;;22.30;28.50;;;;;;4926047;28;75141;-69
2021/03/10 11:17:04;;;;;;;;;;;23.10;27.30;;;;;;4921849;28;78123;-69
2021/03/10 11:19:30;;;;;;;;;;;23.70;26.00;;;;;;4920294;28;77254;-69
2021/03/10 11:21:55;;;;;;;;;;;24.10;26.20;;;;;;4933684;28;76693;-69
2021/03/10 11:24:21;;;;;;;;;;;24.80;25.90;;;;;;4934952;28;76320;-69
2021/03/10 11:26:47;;;;;;;;;;;25.60;24.80;;;;;;4932507;28;77600;-69
2021/03/10 11:29:13;;;;;;;;;;;26.40;24.40;;;;;;4928008;28;76471;-69
2021/03/10 11:31:38;;;;;;;;;;;27.30;23.10;;;;;;4919443;28;76672;-68
2021/03/10 11:34:04;;;;;;;;;;;28.00;22.80;;;;;;4927978;28;77887;-69
2021/03/10 11:36:30;;;;;;;;;;;28.60;22.10;;;;;;4933666;28;75945;-69
2021/03/10 11:38:56;;;;;;;;;;;29.00;20.40;;;;;;4927691;28;76561;-69
2021/03/10 11:41:21;;;;;;;;;;;29.40;21.50;;;;;;4930519;28;75073;-69
2021/03/10 11:43:47;;;;;;;;;;;29.10;20.20;;;;;;4920292;28;76233;-68
2021/03/10 11:46:12;;;;;;;;;;;28.90;21.60;;;;;;4925517;28;76419;-69
2021/03/10 11:48:38;;;;;;;;;;;29.90;21.00;;;;;;4948492;28;78097;-69
2021/03/10 11:51:04;;;;;;;;;;;30.70;20.70;;;;;;4925396;28;75867;-68
2021/03/10 11:53:30;;;;;;;;;;;31.90;19.90;;;;;;4927066;28;76435;-69
2021/03/10 11:55:56;;;;;;;;;;;33.00;19.40;;;;;;4930932;28;77000;-69
2021/03/10 11:58:22;;;;;;;;;;;33.80;17.70;;;;;;4928165;28;76213;-69
2021/03/10 12:00:48;;;;;;;;;;;33.80;15.70;;;;;;4922930;28;75841;-69
2021/03/10 12:03:13;;;;;;;;;;;33.90;17.60;;;;;;4935685;28;75331;-69
2021/03/10 12:05:39;;;;;;;;;;;33.90;17.10;;;;;;4925385;28;76390;-69
2021/03/10 12:08:05;;;;;;;;;;;32.80;18.00;;;;;;4927477;28;76668;-71
2021/03/10 12:10:37;;;;;;;;;;;32.10;18.70;;;;;;4932291;28;77055;-69
2021/03/10 12:13:03;;;;;;;;;;;31.90;18.90;;;;;;4926103;28;78063;-69
2021/03/10 12:15:28;;;;;;;;;;;31.50;19.10;;;;;;4937224;28;77909;-69
2021/03/10 12:17:54;;;;;;;;;;;32.40;18.90;;;;;;4933946;28;75895;-70
2021/03/10 12:20:19;;;;;;;;;;;33.90;17.60;;;;;;4931408;28;76312;-69
2021/03/10 12:22:45;;;;;;;;;;;35.10;17.20;;;;;;4931105;28;76047;-70
2021/03/10 12:25:11;;;;;;;;;;;35.80;16.50;;;;;;4925746;28;76317;-69
2021/03/10 12:27:37;;;;;;;;;;;35.90;15.90;;;;;;4936670;28;77015;-70
2021/03/10 12:30:03;;;;;;;;;;;35.80;16.30;;;;;;4923699;28;78093;-69
2021/03/10 12:32:28;;;;;;;;;;;35.20;14.90;;;;;;4930469;28;75927;-69
2021/03/10 12:34:54;;;;;;;;;;;33.90;16.10;;;;;;4930510;28;76646;-69
2021/03/10 12:37:20;;;;;;;;;;;33.10;17.30;;;;;;4922451;28;75937;-69
2021/03/10 12:39:46;;;;;;;;;;;33.10;17.80;;;;;;4929804;28;76258;-69
2021/03/10 12:42:12;;;;;;;;;;;32.10;18.20;;;;;;4925491;28;76618;-69
2021/03/10 12:44:41;;;;;;;;;;;32.00;19.10;;;;;;4922727;28;75690;-70
2021/03/10 12:47:07;;;;;;;;;;;33.40;18.20;;;;;;4918441;28;75898;-70
2021/03/10 12:49:32;;;;;;;;;;;34.70;17.00;;;;;;4932056;28;75591;-70
2021/03/10 12:51:58;;;;;;;;;;;34.60;17.40;;;;;;4932770;28;75542;-70
2021/03/10 12:54:24;;;;;;;;;;;34.10;18.00;;;;;;4919300;28;76085;-70
2021/03/10 12:56:51;;;;;;;;;;;32.40;16.90;;;;;;4933893;28;75612;-69
2021/03/10 12:59:17;;;;;;;;;;;30.40;18.90;;;;;;4936158;28;78040;-69
2021/03/10 13:01:42;;;;;;;;;;;30.20;18.00;;;;;;4923002;28;77132;-70
2021/03/10 13:04:08;;;;;;;;;;;29.10;20.20;;;;;;4918836;28;76897;-72
2021/03/10 13:06:33;;;;;;;;;;;29.20;20.50;;;;;;4926205;28;76098;-69
2021/03/10 13:08:59;;;;;;;;;;;30.40;19.70;;;;;;4923852;28;76342;-69
2021/03/10 13:11:27;;;;;;;;;;;31.30;19.70;;;;;;4918455;28;76427;-71
2021/03/10 13:13:52;;;;;;;;;;;30.60;17.80;;;;;;4930431;28;75631;-70
2021/03/10 13:16:18;;;;;;;;;;;28.50;18.90;;;;;;4926992;28;75715;-69
2021/03/10 13:18:43;;;;;;;;;;;27.60;20.20;;;;;;4927907;28;75616;-72
2021/03/10 13:21:09;;;;;;;;;;;29.00;20.30;;;;;;4932690;28;75156;-71
2021/03/10 13:23:35;;;;;;;;;;;31.00;17.80;;;;;;4935310;28;75844;-70
2021/03/10 13:26:00;;;;;;;;;;;32.90;17.70;;;;;;4930744;28;76270;-70
2021/03/10 13:28:26;;;;;;;;;;;34.80;17.00;;;;;;4931686;28;76829;-69
2021/03/10 13:30:52;;;;;;;;;;;36.10;16.40;;;;;;4921130;28;77746;-71
2021/03/10 13:33:18;;;;;;;;;;;36.20;15.80;;;;;;4926466;28;77358;-71
2021/03/10 13:35:43;;;;;;;;;;;33.90;16.90;;;;;;4925251;28;76747;-69
2021/03/10 13:38:09;;;;;;;;;;;31.80;18.50;;;;;;4930046;28;77000;-68
2021/03/10 13:40:35;;;;;;;;;;;31.20;18.30;;;;;;4930215;28;76866;-71
2021/03/10 13:43:01;;;;;;;;;;;31.00;18.80;;;;;;4929998;28;77572;-69
2021/03/10 13:45:27;;;;;;;;;;;30.70;19.60;;;;;;4931685;28;75821;-70
2021/03/10 13:47:53;;;;;;;;;;;30.80;19.70;;;;;;4930281;28;75452;-70
2021/03/10 13:50:19;;;;;;;;;;;30.40;20.30;;;;;;4931601;28;75354;-70
2021/03/10 13:52:44;;;;;;;;;;;31.00;20.20;;;;;;4928083;28;75791;-70
2021/03/10 13:55:10;;;;;;;;;;;32.00;19.00;;;;;;4931310;28;75128;-70
2021/03/10 13:57:36;;;;;;;;;;;32.60;18.40;;;;;;4929846;28;74692;-70
2021/03/10 14:00:04;;;;;;;;;;;32.40;19.20;;;;;;4930911;28;75814;-70
2021/03/10 14:02:29;;;;;;;;;;;32.90;18.10;;;;;;4929502;28;74781;-69
2021/03/10 14:04:55;;;;;;;;;;;32.50;18.50;;;;;;4929984;28;75896;-69
2021/03/10 14:07:21;;;;;;;;;;;31.30;18.70;;;;;;4929679;28;77164;-69
2021/03/10 14:09:46;;;;;;;;;;;30.50;19.20;;;;;;4930979;28;75503;-70
2021/03/10 14:12:12;;;;;;;;;;;30.60;19.80;;;;;;4931407;28;75410;-70
2021/03/10 14:14:38;;;;;;;;;;;31.40;19.10;;;;;;4929104;28;75199;-69
2021/03/10 14:17:04;;;;;;;;;;;32.20;18.70;;;;;;4929851;28;77539;-69
2021/03/10 14:19:29;;;;;;;;;;;32.90;19.00;;;;;;4929665;28;76250;-69
2021/03/10 14:21:55;;;;;;;;;;;34.30;17.40;;;;;;4929489;28;75288;-69
2021/03/10 14:24:21;;;;;;;;;;;35.60;16.70;;;;;;4929399;28;75766;-70